Time;durP1;ratioP1;P1;durP2;ratioP2;P2;SDS_P1;SDS_P2;PMS_P1;PMS_P2;Temp;Humidity;BMP_temperature;BMP_pressure;BME280_temperature;BME280_humidity;BME280_pressure;Samples;Min_cycle;Max_cycle;Signal;HPM_P1;HPM_P2
2023/01/11 00:01:42;;;;;;;;;40.60;33.00;;;;;10.57;62.20;99138.47;6296848;27;96317;-63
2023/01/11 00:04:47;;;;;;;;;40.40;34.00;;;;;10.57;61.93;99133.06;6317567;27;97016;-65
2023/01/11 00:07:51;;;;;;;;;40.20;35.20;;;;;10.55;62.35;99132.47;6320524;27;96256;-64
2023/01/11 00:10:55;;;;;;;;;41.20;33.80;;;;;10.52;62.36;99122.94;6321563;27;96395;-64
2023/01/11 00:13:58;;;;;;;;;42.50;35.50;;;;;10.51;62.25;99120.44;6318972;27;96236;-65
2023/01/11 00:17:01;;;;;;;;;42.25;34.50;;;;;10.50;62.12;99127.75;6318995;27;97137;-64
2023/01/11 00:20:08;;;;;;;;;39.40;33.40;;;;;10.52;62.23;99124.81;6320368;27;96251;-65
2023/01/11 00:23:11;;;;;;;;;37.40;33.00;;;;;10.51;62.13;99125.84;6309088;27;96572;-64
2023/01/11 00:26:14;;;;;;;;;42.25;34.50;;;;;10.49;61.94;99127.94;6320668;27;96365;-64
2023/01/11 00:29:18;;;;;;;;;41.50;35.00;;;;;10.41;61.77;99134.38;6311270;27;96352;-64
2023/01/11 00:32:21;;;;;;;;;38.20;32.60;;;;;10.35;62.02;99138.78;6319491;27;97003;-64
2023/01/11 00:35:27;;;;;;;;;35.20;32.00;;;;;10.26;62.21;99144.63;6318995;27;97291;-65
2023/01/11 00:38:50;;;;;;;;;43.33;34.33;;;;;10.23;62.36;99145.88;6303645;27;96500;-63
2023/01/11 00:48:35;;;;;;;;;39.40;33.00;;;;;10.34;62.06;99157.88;6318249;27;96227;-63
2023/01/11 00:51:39;;;;;;;;;40.25;33.00;;;;;10.33;62.03;99156.19;6314554;27;96596;-65
2023/01/11 00:54:43;;;;;;;;;40.40;34.40;;;;;10.33;62.27;99156.19;6312741;27;97061;-65
2023/01/11 00:57:46;;;;;;;;;40.80;33.80;;;;;10.34;61.97;99156.00;6319730;27;96332;-63
2023/01/11 01:00:49;;;;;;;;;35.75;31.50;;;;;10.38;62.04;99156.41;6318841;27;96510;-63
2023/01/11 01:03:52;;;;;;;;;39.00;33.40;;;;;10.39;61.81;99152.66;6316968;27;96244;-64
2023/01/11 01:06:57;;;;;;;;;41.40;35.00;;;;;10.36;61.98;99150.41;6313185;27;96411;-65
2023/01/11 01:10:00;;;;;;;;;36.60;32.20;;;;;10.35;62.12;99154.13;6319628;27;96952;-64
2023/01/11 01:16:24;;;;;;;;;38.00;34.00;;;;;10.40;61.84;99154.31;6316701;27;96891;-63
2023/01/11 01:19:29;;;;;;;;;35.40;31.40;;;;;10.40;61.68;99151.63;6318009;27;96266;-64
2023/01/11 01:22:34;;;;;;;;;37.40;32.00;;;;;10.47;61.54;99162.34;6302866;27;96293;-63
2023/01/11 01:25:37;;;;;;;;;35.40;31.40;;;;;10.51;61.56;99158.19;6321026;27;96509;-62
2023/01/11 01:28:41;;;;;;;;;35.20;32.00;;;;;10.51;61.28;99155.50;6320114;27;96392;-63
2023/01/11 01:31:44;;;;;;;;;36.40;30.40;;;;;10.55;61.39;99157.56;6315008;27;96393;-63
2023/01/11 01:34:48;;;;;;;;;35.50;32.00;;;;;10.57;61.08;99154.66;6320191;27;96829;-65
2023/01/11 01:37:52;;;;;;;;;37.00;32.00;;;;;10.57;60.86;99149.25;6312298;27;96270;-64
2023/01/11 01:40:56;;;;;;;;;35.60;31.60;;;;;10.59;60.84;99152.56;6317259;27;97460;-64
2023/01/11 01:44:01;;;;;;;;;37.60;32.60;;;;;10.59;60.66;99149.88;6323457;27;96514;-65
2023/01/11 01:47:05;;;;;;;;;33.80;30.00;;;;;10.61;60.71;99156.69;6323422;27;96364;-63
2023/01/11 01:50:14;;;;;;;;;33.80;30.40;;;;;10.61;60.35;99163.94;6324191;27;96351;-63
2023/01/11 01:53:23;;;;;;;;;37.00;32.00;;;;;10.62;60.53;99162.91;6324119;27;96352;-64
2023/01/11 01:56:31;;;;;;;;;37.60;30.00;;;;;10.63;60.28;99162.72;6324298;27;96327;-64
2023/01/11 01:59:35;;;;;;;;;36.40;32.00;;;;;10.63;60.13;99157.31;6317543;27;96283;-63
2023/01/11 02:02:41;;;;;;;;;31.60;29.40;;;;;10.64;59.94;99156.28;6325348;27;96931;-63
2023/01/11 02:05:44;;;;;;;;;35.00;31.00;;;;;10.63;60.00;99151.91;6325038;27;96871;-64
2023/01/11 02:08:56;;;;;;;;;33.60;31.00;;;;;10.66;60.18;99161.44;6314773;27;96891;-63
2023/01/11 02:12:00;;;;;;;;;31.00;30.00;;;;;10.64;60.12;99158.97;6319585;27;96259;-64
2023/01/11 02:15:05;;;;;;;;;32.00;30.00;;;;;10.68;60.40;99162.06;6323736;27;96674;-63
2023/01/11 02:18:13;;;;;;;;;31.20;29.80;;;;;10.67;60.33;99163.09;6324655;27;96314;-64
2023/01/11 02:21:25;;;;;;;;;37.00;31.60;;;;;10.65;60.13;99154.41;6316826;27;97389;-63
2023/01/11 02:24:57;;;;;;;;;35.40;31.00;;;;;10.46;60.77;99144.56;6322586;27;96385;-64
2023/01/11 02:28:08;;;;;;;;;40.75;35.00;;;;;10.51;60.74;99156.31;6303783;27;96776;-63
2023/01/11 02:31:23;;;;;;;;;41.00;32.75;;;;;10.53;61.05;99162.34;6300666;27;96698;-63
2023/01/11 02:34:36;;;;;;;;;41.20;34.00;;;;;10.55;60.70;99159.44;6319212;27;96251;-63
2023/01/11 02:37:51;;;;;;;;;41.00;34.00;;;;;10.51;60.95;99156.31;6317811;27;96491;-63
2023/01/11 02:41:03;;;;;;;;;40.00;33.50;;;;;10.45;61.27;99156.38;6323856;27;96452;-63
2023/01/11 02:47:44;;;;;;;;;42.00;35.60;;;;;10.47;61.15;99147.00;6313558;27;96315;-63
2023/01/11 02:50:54;;;;;;;;;37.00;33.00;;;;;10.42;61.46;99154.91;6311355;27;96340;-63
2023/01/11 02:54:02;;;;;;;;;46.50;38.00;;;;;10.42;61.52;99163.84;6324646;27;96337;-64
2023/01/11 02:57:06;;;;;;;;;46.00;37.40;;;;;10.38;61.77;99159.09;6322000;27;97286;-64
2023/01/11 03:00:13;;;;;;;;;49.00;40.00;;;;;10.37;62.08;99162.81;6322649;27;96917;-64
2023/01/11 03:03:20;;;;;;;;;47.00;39.00;;;;;10.39;62.07;99158.88;6313096;27;96257;-63
2023/01/11 03:06:27;;;;;;;;;48.60;39.60;;;;;10.41;61.97;99158.66;6320236;27;96301;-63
2023/01/11 03:09:40;;;;;;;;;48.80;39.60;;;;;10.39;62.41;99158.06;6299192;27;96650;-64
2023/01/11 03:12:59;;;;;;;;;50.40;40.60;;;;;10.42;62.19;99161.13;6324370;27;96290;-65
2023/01/11 03:16:26;;;;;;;;;56.00;43.00;;;;;10.45;62.14;99151.81;6321381;27;96706;-63
2023/01/11 03:19:39;;;;;;;;;50.60;39.80;;;;;10.43;62.45;99151.19;6312836;27;96618;-63
2023/01/11 03:22:53;;;;;;;;;51.60;42.00;;;;;10.46;62.34;99155.34;6308874;27;96458;-65
2023/01/11 03:26:02;;;;;;;;;51.25;41.25;;;;;10.41;62.32;99155.94;6315150;27;96560;-62
2023/01/11 03:29:15;;;;;;;;;50.80;41.00;;;;;10.36;62.75;99148.50;6322761;27;96729;-63
2023/01/11 03:32:28;;;;;;;;;50.60;41.00;;;;;10.20;62.71;99138.22;6314780;27;96468;-63
2023/01/11 03:35:39;;;;;;;;;51.20;41.00;;;;;10.34;62.80;99145.22;6321412;27;97793;-64
2023/01/11 03:38:51;;;;;;;;;52.00;41.20;;;;;10.36;62.43;99145.00;6322807;27;97541;-66
2023/01/11 03:41:58;;;;;;;;;53.00;43.00;;;;;10.37;62.56;99139.38;6323002;27;96273;-64
2023/01/11 03:45:04;;;;;;;;;53.40;43.00;;;;;10.40;62.50;99136.28;6320806;27;96829;-63
2023/01/11 03:48:13;;;;;;;;;51.20;41.00;;;;;10.41;62.42;99139.78;6319617;27;96542;-65
2023/01/11 03:51:26;;;;;;;;;49.80;41.00;;;;;10.43;62.29;99143.94;6321285;27;96305;-64
2023/01/11 03:54:32;;;;;;;;;54.00;43.40;;;;;10.45;62.23;99138.34;6308650;27;96310;-64
2023/01/11 03:57:40;;;;;;;;;51.00;41.50;;;;;10.48;62.32;99137.06;6313121;27;96478;-64
2023/01/11 04:00:44;;;;;;;;;52.60;42.00;;;;;10.50;62.04;99145.78;6319194;27;96716;-64
2023/01/11 04:03:48;;;;;;;;;53.60;42.40;;;;;10.53;61.84;99146.16;6316695;27;97176;-65
2023/01/11 04:06:52;;;;;;;;;55.00;43.00;;;;;10.51;61.91;99142.84;6318277;27;96970;-64
2023/01/11 04:09:55;;;;;;;;;52.00;43.00;;;;;10.53;61.96;99137.25;6316758;27;96383;-64
2023/01/11 04:12:59;;;;;;;;;55.00;43.40;;;;;10.52;61.78;99136.41;6303145;27;96328;-64
2023/01/11 04:16:02;;;;;;;;;52.40;42.40;;;;;10.53;61.81;99143.47;6315046;27;96679;-64
2023/01/11 04:19:07;;;;;;;;;55.67;44.67;;;;;10.54;61.66;99134.34;6311749;27;97465;-64
2023/01/11 04:22:10;;;;;;;;;55.40;43.40;;;;;10.49;61.77;99133.34;6309535;27;96226;-64
2023/01/11 04:25:13;;;;;;;;;57.40;44.00;;;;;10.47;61.95;99122.75;6319506;27;96362;-64
2023/01/11 04:28:16;;;;;;;;;57.20;44.20;;;;;10.49;61.98;99130.63;6318328;27;96332;-64
2023/01/11 04:31:19;;;;;;;;;56.00;45.00;;;;;10.48;62.01;99132.50;6305777;27;96334;-65
2023/01/11 04:34:24;;;;;;;;;56.40;45.00;;;;;10.48;62.07;99129.81;6310663;27;96528;-63
2023/01/11 04:37:27;;;;;;;;;54.00;43.00;;;;;10.45;62.07;99122.16;6310202;27;96283;-64
2023/01/11 04:40:31;;;;;;;;;53.50;42.75;;;;;10.42;61.96;99119.88;6308189;27;96444;-64
2023/01/11 04:43:33;;;;;;;;;56.00;44.50;;;;;10.46;62.02;99125.69;6311083;27;96326;-63
2023/01/11 04:46:36;;;;;;;;;55.00;41.50;;;;;10.48;61.87;99132.50;6312451;27;96282;-64
2023/01/11 04:49:42;;;;;;;;;52.00;42.00;;;;;10.36;62.00;99108.09;6300475;27;97101;-62
2023/01/11 04:52:45;;;;;;;;;56.00;44.00;;;;;10.40;62.20;99116.59;6318424;27;96309;-64
2023/01/11 04:55:48;;;;;;;;;54.40;43.00;;;;;10.42;62.06;99109.94;6320708;27;96287;-63
2023/01/11 04:58:51;;;;;;;;;54.80;44.00;;;;;10.42;62.18;99111.78;6305685;27;96973;-63
2023/01/11 05:01:55;;;;;;;;;53.00;43.00;;;;;10.35;62.21;99128.00;6308277;27;97277;-63
2023/01/11 05:05:00;;;;;;;;;52.00;43.00;;;;;10.30;62.44;99130.53;6319906;27;96596;-63
2023/01/11 05:08:03;;;;;;;;;54.00;42.80;;;;;10.29;62.56;99133.44;6313042;27;96248;-66
2023/01/11 05:11:08;;;;;;;;;55.60;43.40;;;;;10.31;62.49;99134.84;6319747;27;97065;-65
2023/01/11 05:14:11;;;;;;;;;51.20;41.60;;;;;10.31;62.42;99129.47;6305977;27;96302;-65
2023/01/11 05:17:15;;;;;;;;;49.00;40.00;;;;;10.31;62.35;99131.34;6314477;27;96652;-63
2023/01/11 05:20:20;;;;;;;;;50.40;41.60;;;;;10.32;62.34;99123.03;6321939;27;96528;-64
2023/01/11 05:23:23;;;;;;;;;51.75;40.00;;;;;10.33;62.38;99129.25;6308237;27;96648;-64
2023/01/11 05:26:29;;;;;;;;;47.50;39.00;;;;;10.29;62.23;99120.78;6321244;27;96210;-64
2023/01/11 05:29:32;;;;;;;;;50.00;38.00;;;;;10.34;62.36;99125.53;6312621;27;96441;-64
2023/01/11 05:32:36;;;;;;;;;50.00;39.00;;;;;10.39;62.06;99126.53;6320359;27;96353;-63
2023/01/11 05:35:40;;;;;;;;;45.00;37.00;;;;;10.40;62.10;99130.91;6311296;27;96328;-63
2023/01/11 05:38:46;;;;;;;;;47.00;37.80;;;;;10.40;61.84;99127.38;6313531;27;96248;-64
2023/01/11 05:41:49;;;;;;;;;47.00;38.00;;;;;10.38;62.04;99129.44;6310950;27;97292;-65
2023/01/11 05:48:13;;;;;;;;;48.75;39.00;;;;;10.28;62.23;99127.19;6307928;27;96406;-64
2023/01/11 05:51:18;;;;;;;;;47.80;38.80;;;;;10.31;62.20;99129.47;6312408;27;96390;-64
2023/01/11 05:54:21;;;;;;;;;46.00;37.40;;;;;10.33;62.01;99130.09;6317215;27;96554;-66
2023/01/11 05:57:25;;;;;;;;;48.80;39.00;;;;;10.36;61.97;99124.25;6307833;27;96981;-65
2023/01/11 06:00:28;;;;;;;;;46.00;37.20;;;;;10.30;61.78;99100.06;6319560;27;96313;-64
2023/01/11 06:03:31;;;;;;;;;49.50;38.00;;;;;10.40;61.59;99120.13;6318066;27;96244;-65
2023/01/11 06:06:36;;;;;;;;;47.00;38.00;;;;;10.43;61.77;99105.38;6315459;27;96202;-65
2023/01/11 06:09:40;;;;;;;;;45.40;36.00;;;;;10.45;61.50;99105.16;6315942;27;96333;-66
2023/01/11 06:12:43;;;;;;;;;47.00;37.00;;;;;10.39;61.36;99107.69;6303345;27;97374;-65
2023/01/11 06:15:47;;;;;;;;;43.80;35.60;;;;;10.43;61.37;99106.19;6314588;27;96279;-65
2023/01/11 06:18:52;;;;;;;;;47.60;38.20;;;;;10.47;61.20;99108.44;6313315;27;96141;-64
2023/01/11 06:21:57;;;;;;;;;43.75;36.00;;;;;10.47;61.29;99103.88;6320894;27;96307;-65
2023/01/11 06:25:00;;;;;;;;;45.50;37.00;;;;;10.45;61.27;99102.47;6315084;27;97543;-64
2023/01/11 06:28:04;;;;;;;;;49.00;38.00;;;;;10.50;61.11;99108.03;6315175;27;96396;-64
2023/01/11 06:31:08;;;;;;;;;40.00;32.20;;;;;10.53;60.81;99099.50;6314095;27;96851;-64
2023/01/11 06:34:11;;;;;;;;;45.60;36.40;;;;;10.55;60.78;99092.03;6321363;27;97225;-63
2023/01/11 06:37:16;;;;;;;;;41.00;34.50;;;;;10.54;60.92;99093.06;6323649;27;96226;-66
2023/01/11 06:40:20;;;;;;;;;40.20;32.60;;;;;10.53;60.72;99099.50;6315792;27;96308;-64
2023/01/11 06:43:25;;;;;;;;;43.80;35.40;;;;;10.52;60.77;99101.38;6307585;27;96437;-65
2023/01/11 06:46:28;;;;;;;;;42.00;35.00;;;;;10.54;60.62;99106.56;6304659;27;96244;-63
2023/01/11 06:49:32;;;;;;;;;40.50;34.50;;;;;10.53;60.65;99105.72;6301923;27;96489;-64
2023/01/11 06:52:36;;;;;;;;;47.00;37.75;;;;;10.56;60.40;99109.84;6323436;27;96232;-64
2023/01/11 06:55:40;;;;;;;;;41.25;33.25;;;;;10.55;60.67;99097.44;6322829;27;96621;-63
2023/01/11 06:58:43;;;;;;;;;44.00;36.00;;;;;10.56;60.71;99104.47;6321519;27;96655;-64
2023/01/11 07:01:49;;;;;;;;;45.75;37.00;;;;;10.59;61.02;99102.19;6321716;27;96370;-63
2023/01/11 07:04:53;;;;;;;;;40.00;33.60;;;;;10.68;60.59;99098.19;6320369;27;96288;-63
2023/01/11 07:07:58;;;;;;;;;51.00;42.00;;;;;10.72;60.37;99101.25;6320762;27;96257;-65
2023/01/11 07:11:01;;;;;;;;;45.00;33.60;;;;;10.74;60.44;99100.00;6319479;27;96433;-64
2023/01/11 07:14:05;;;;;;;;;44.00;35.00;;;;;10.78;60.06;99093.13;6321565;27;96258;-64
2023/01/11 07:17:08;;;;;;;;;45.50;36.25;;;;;10.83;59.79;99095.19;6323290;27;96317;-64
2023/01/11 07:20:12;;;;;;;;;40.60;35.00;;;;;10.79;59.97;99088.56;6302446;27;96383;-64
2023/01/11 07:23:17;;;;;;;;;40.60;33.00;;;;;10.80;59.87;99088.31;6310434;27;97249;-63
2023/01/11 07:26:20;;;;;;;;;45.00;37.00;;;;;10.90;59.77;99098.63;6305020;27;96248;-64
2023/01/11 07:29:24;;;;;;;;;41.40;33.00;;;;;10.83;59.45;99092.47;6323016;27;96428;-64
2023/01/11 07:32:28;;;;;;;;;45.40;35.40;;;;;10.90;59.43;99095.13;6320599;27;96619;-66
2023/01/11 07:35:32;;;;;;;;;46.00;36.40;;;;;11.62;58.16;99091.81;6314092;27;96586;-64
2023/01/11 07:38:36;;;;;;;;;43.20;35.00;;;;;12.47;55.24;99069.16;6324224;27;96340;-63
2023/01/11 07:45:00;;;;;;;;;41.25;33.00;;;;;14.86;48.65;99099.78;6322924;27;96273;-65
2023/01/11 07:48:06;;;;;;;;;42.00;33.00;;;;;15.79;46.72;99088.28;6322664;27;96489;-64
2023/01/11 07:51:10;;;;;;;;;44.20;35.80;;;;;16.85;43.88;99089.63;6318312;27;97006;-64
2023/01/11 07:54:15;;;;;;;;;40.75;34.00;;;;;17.90;41.27;99077.09;6322823;27;96317;-64
2023/01/11 07:57:18;;;;;;;;;36.60;32.00;;;;;18.78;38.91;99081.53;6324389;27;96367;-65
2023/01/11 08:00:22;;;;;;;;;43.20;33.60;;;;;19.63;37.55;99077.25;6326047;27;96916;-68
2023/01/11 08:03:27;;;;;;;;;41.40;33.00;;;;;20.58;35.93;99086.25;6325235;27;96833;-63
2023/01/11 08:06:30;;;;;;;;;36.75;32.00;;;;;21.43;33.92;99070.31;6302622;27;96257;-64
2023/01/11 08:09:35;;;;;;;;;39.00;32.80;;;;;22.26;32.19;99075.50;6303645;27;96237;-64
2023/01/11 08:16:04;;;;;;;;;39.20;30.60;;;;;23.33;30.75;99058.31;6328024;27;96346;-65
2023/01/11 08:19:07;;;;;;;;;34.20;31.20;;;;;23.61;29.54;99060.03;6327039;27;96238;-65
2023/01/11 08:22:12;;;;;;;;;34.60;31.40;;;;;23.98;28.95;99053.56;6325798;27;96967;-66
2023/01/11 08:25:17;;;;;;;;;35.00;30.00;;;;;24.48;27.92;99061.97;6323158;27;96593;-66
2023/01/11 08:28:20;;;;;;;;;34.00;30.00;;;;;24.80;27.22;99058.19;6325714;27;96935;-65
2023/01/11 08:31:25;;;;;;;;;33.40;29.80;;;;;25.19;26.85;99049.31;6326431;27;96327;-66
2023/01/11 08:34:28;;;;;;;;;33.40;30.00;;;;;25.71;26.34;99058.75;6339524;27;96473;-66
2023/01/11 08:37:31;;;;;;;;;37.50;31.25;;;;;26.09;26.18;99059.09;6327842;27;96740;-65
2023/01/11 08:40:36;;;;;;;;;34.00;30.00;;;;;26.46;25.34;99046.72;6318802;27;96970;-66
2023/01/11 08:43:41;;;;;;;;;34.00;31.00;;;;;27.04;24.71;99043.53;6315876;27;98304;-66
2023/01/11 08:46:44;;;;;;;;;30.60;28.00;;;;;27.52;22.88;99059.97;6318603;27;96837;-67
2023/01/11 08:49:48;;;;;;;;;24.60;22.60;;;;;26.96;23.57;99064.56;6313777;27;96310;-65
2023/01/11 08:52:51;;;;;;;;;25.00;23.00;;;;;26.80;23.88;99049.53;6316633;27;96760;-66
2023/01/11 08:55:56;;;;;;;;;28.00;27.00;;;;;27.07;22.91;99067.81;6322151;27;97121;-65
2023/01/11 08:59:01;;;;;;;;;28.80;26.00;;;;;27.43;23.20;99040.56;6325799;27;96546;-64
2023/01/11 09:02:06;;;;;;;;;28.00;26.00;;;;;27.39;22.30;99066.47;6326922;27;96330;-66
2023/01/11 09:05:09;;;;;;;;;34.40;29.40;;;;;26.51;24.61;99052.09;6324908;27;96403;-65
2023/01/11 09:08:13;;;;;;;;;28.00;27.00;;;;;24.76;25.34;99062.72;6319973;27;96617;-65
2023/01/11 09:14:39;;;;;;;;;35.25;30.00;;;;;21.58;30.06;99045.50;6321689;27;97776;-65
2023/01/11 09:17:42;;;;;;;;;34.60;31.00;;;;;20.11;32.45;99045.63;6317429;27;96361;-65
2023/01/11 09:20:45;;;;;;;;;28.00;25.00;;;;;18.82;34.10;99038.13;6318625;27;97222;-65
2023/01/11 09:23:49;;;;;;;;;28.00;26.00;;;;;17.57;36.62;99032.72;6318051;27;96303;-64
2023/01/11 09:26:54;;;;;;;;;28.40;25.40;;;;;16.79;38.21;99041.63;6317495;27;96845;-65
2023/01/11 09:29:57;;;;;;;;;24.00;21.40;;;;;16.31;38.88;99029.69;6314914;27;96816;-63
2023/01/11 09:33:03;;;;;;;;;26.00;23.00;;;;;16.09;39.82;99026.16;6312798;27;96252;-64
2023/01/11 09:36:07;;;;;;;;;27.00;22.00;;;;;16.00;40.12;99023.06;6319578;27;96555;-65
2023/01/11 09:39:17;;;;;;;;;23.40;21.00;;;;;15.86;40.35;99021.81;6325897;27;96896;-66
2023/01/11 09:42:35;;;;;;;;;20.75;19.75;;;;;15.68;40.81;99016.69;6306698;27;96834;-66
2023/01/11 09:45:45;;;;;;;;;30.00;23.40;;;;;15.43;41.33;99011.69;6326582;27;96273;-63
2023/01/11 09:48:54;;;;;;;;;24.25;22.00;;;;;15.47;41.37;99001.94;6325259;27;96282;-63
2023/01/11 09:52:09;;;;;;;;;21.00;20.00;;;;;15.51;40.89;99003.13;6325478;27;96267;-64
2023/01/11 09:55:18;;;;;;;;;21.80;19.00;;;;;16.21;39.36;99015.97;6315467;27;96427;-65
2023/01/11 09:58:45;;;;;;;;;23.00;21.00;;;;;15.47;40.42;98999.22;6325681;27;96358;-66
2023/01/11 10:01:54;;;;;;;;;21.00;19.75;;;;;16.56;39.46;99009.25;6326117;27;96417;-64
2023/01/11 10:05:22;;;;;;;;;22.75;18.00;;;;;17.46;36.61;99000.19;6329010;27;96312;-65
2023/01/11 10:08:45;;;;;;;;;17.40;17.00;;;;;19.10;34.29;98999.34;6311056;27;96304;-64
2023/01/11 10:12:18;;;;;;;;;16.00;14.00;;;;;19.97;32.15;98987.13;6329232;27;96075;-65
2023/01/11 10:15:53;;;;;;;;;17.00;14.00;;;;;21.40;29.97;98977.66;6329214;27;96381;-66
2023/01/11 10:19:22;;;;;;;;;17.40;15.40;;;;;22.83;27.91;98970.03;6319324;27;96186;-66
2023/01/11 10:22:46;;;;;;;;;16.33;15.33;;;;;23.84;25.60;98953.63;6324607;27;96366;-65
2023/01/11 10:25:53;;;;;;;;;16.20;15.00;;;;;24.68;25.11;98953.97;6326858;27;97367;-65
2023/01/11 10:29:20;;;;;;;;;15.75;14.00;;;;;25.48;24.34;98944.75;6319128;27;96309;-66
2023/01/11 10:32:44;;;;;;;;;18.00;16.00;;;;;25.63;22.77;98952.66;6318580;27;96347;-66
2023/01/11 10:39:34;;;;;;;;;17.00;17.00;;;;;24.41;24.46;98937.53;6312733;27;96295;-66
2023/01/11 10:42:44;;;;;;;;;16.00;15.00;;;;;24.87;24.45;98940.03;6320908;27;96821;-64
2023/01/11 10:45:51;;;;;;;;;15.00;14.00;;;;;24.83;23.84;98941.75;6322698;27;96350;-65
2023/01/11 10:49:08;;;;;;;;;12.00;11.00;;;;;24.40;24.25;98944.97;6326703;27;96284;-64
2023/01/11 10:52:23;;;;;;;;;14.00;13.00;;;;;24.81;24.02;98942.09;6327168;27;96437;-66
2023/01/11 10:55:38;;;;;;;;;15.00;15.00;;;;;24.69;24.89;98941.81;6310090;27;96683;-67
2023/01/11 10:59:03;;;;;;;;;16.00;16.00;;;;;24.05;25.05;98949.31;6311443;27;96385;-67
2023/01/11 11:02:25;;;;;;;;;16.00;15.00;;;;;24.28;24.43;98941.97;6323805;27;96518;-66
2023/01/11 11:05:41;;;;;;;;;14.50;13.50;;;;;24.27;24.54;98950.53;6307073;27;96302;-66
2023/01/11 11:08:54;;;;;;;;;15.00;14.00;;;;;24.47;25.05;98950.06;6317156;27;96380;-68
2023/01/11 11:12:00;;;;;;;;;16.40;14.40;;;;;24.44;24.78;98942.41;6309475;27;96402;-66
2023/01/11 11:15:11;;;;;;;;;14.50;13.00;;;;;24.24;24.20;98945.66;6311959;27;96362;-65
2023/01/11 11:18:14;;;;;;;;;14.00;13.00;;;;;24.47;24.30;98939.88;6318831;27;96546;-67
2023/01/11 11:21:23;;;;;;;;;15.00;13.00;;;;;24.81;24.34;98922.78;6315195;27;96334;-66
2023/01/11 11:24:33;;;;;;;;;16.40;15.00;;;;;24.84;24.53;98921.31;6314990;27;96977;-66
2023/01/11 11:27:42;;;;;;;;;15.60;14.00;;;;;24.99;23.68;98912.69;6314407;27;96699;-64
2023/01/11 11:30:47;;;;;;;;;14.00;13.00;;;;;25.55;23.69;98914.78;6323982;27;96243;-65
2023/01/11 11:33:50;;;;;;;;;13.40;12.40;;;;;24.96;23.45;98905.88;6328213;27;96339;-66
2023/01/11 11:36:59;;;;;;;;;13.20;12.20;;;;;23.30;24.44;98896.63;6326825;27;96297;-65
2023/01/11 11:40:03;;;;;;;;;14.40;12.40;;;;;21.98;26.03;98895.22;6325784;27;96713;-66
2023/01/11 11:43:16;;;;;;;;;15.40;13.00;;;;;20.61;27.87;98879.44;6324257;27;97501;-65
2023/01/11 11:46:26;;;;;;;;;12.25;12.00;;;;;19.73;29.07;98883.00;6323060;27;96245;-65
2023/01/11 11:49:31;;;;;;;;;13.80;12.40;;;;;19.82;29.83;98880.50;6320317;27;96428;-66
2023/01/11 11:52:36;;;;;;;;;12.50;11.50;;;;;20.82;28.65;98871.84;6314841;27;96834;-65
2023/01/11 11:55:40;;;;;;;;;11.60;11.00;;;;;20.89;28.52;98873.13;6310828;27;97498;-64
2023/01/11 11:58:44;;;;;;;;;12.00;11.00;;;;;21.61;27.43;98872.06;6308678;27;96812;-68
2023/01/11 12:01:59;;;;;;;;;12.20;11.00;;;;;22.12;27.20;98874.13;6314161;27;97187;-66
2023/01/11 12:05:08;;;;;;;;;13.00;13.00;;;;;23.11;25.58;98868.38;6315608;27;96252;-65
2023/01/11 12:08:16;;;;;;;;;14.00;12.20;;;;;24.00;25.19;98871.50;6317204;27;96254;-65
2023/01/11 12:11:28;;;;;;;;;10.00;9.00;;;;;24.56;23.79;98874.59;6325901;27;96838;-64
2023/01/11 12:14:34;;;;;;;;;10.00;9.40;;;;;24.48;23.41;98872.56;6318273;27;96075;-64
2023/01/11 12:17:37;;;;;;;;;9.00;9.00;;;;;24.51;23.39;98868.41;6322368;27;96782;-64
2023/01/11 12:20:43;;;;;;;;;11.00;10.00;;;;;23.88;23.99;98872.03;6321589;27;96846;-64
2023/01/11 12:23:48;;;;;;;;;10.00;9.00;;;;;23.47;24.24;98852.00;6321821;27;97779;-66
2023/01/11 12:27:04;;;;;;;;;9.00;8.20;;;;;23.59;24.62;98853.13;6319773;27;96230;-65
2023/01/11 12:30:21;;;;;;;;;11.40;10.40;;;;;22.82;25.84;98849.41;6325241;27;96054;-64
2023/01/11 12:33:37;;;;;;;;;11.80;10.00;;;;;23.41;25.56;98850.47;6321664;27;96728;-65
2023/01/11 12:36:48;;;;;;;;;10.25;9.25;;;;;23.56;24.65;98842.72;6319428;27;96791;-64
2023/01/11 12:40:01;;;;;;;;;10.40;9.00;;;;;23.66;23.66;98848.00;6317372;27;96281;-66
2023/01/11 12:43:23;;;;;;;;;10.00;10.00;;;;;23.40;24.55;98840.56;6318532;27;96444;-65
2023/01/11 12:46:43;;;;;;;;;11.00;9.00;;;;;23.04;25.08;98844.03;6321040;27;96361;-65
2023/01/11 12:49:54;;;;;;;;;10.00;10.00;;;;;22.01;25.90;98828.72;6319229;27;97248;-65
2023/01/11 12:53:12;;;;;;;;;11.00;11.00;;;;;21.41;26.71;98822.94;6322178;27;96299;-65
2023/01/11 12:56:45;;;;;;;;;9.40;8.60;;;;;20.82;27.60;98817.84;6319762;27;96511;-65
2023/01/11 13:00:13;;;;;;;;;12.00;10.00;;;;;19.84;29.12;98809.91;6309126;27;96236;-64
2023/01/11 13:04:08;;;;;;;;;11.00;10.00;;;;;19.40;29.72;98799.72;6317437;27;96891;-65
2023/01/11 13:07:27;;;;;;;;;9.00;9.00;;;;;19.02;30.09;98798.50;6317384;27;96430;-64
2023/01/11 13:10:39;;;;;;;;;10.60;10.00;;;;;18.48;30.92;98798.34;6312757;27;96134;-64
2023/01/11 13:13:50;;;;;;;;;11.20;9.20;;;;;18.29;30.89;98800.00;6318567;27;97145;-64
2023/01/11 13:17:05;;;;;;;;;11.50;10.00;;;;;18.10;31.34;98796.19;6305361;27;97178;-64
2023/01/11 13:20:23;;;;;;;;;11.40;11.00;;;;;17.70;32.23;98796.94;6316241;27;98980;-64
2023/01/11 13:23:37;;;;;;;;;12.00;11.00;;;;;17.22;32.85;98795.41;6309233;27;96321;-64
2023/01/11 13:26:44;;;;;;;;;11.00;10.00;;;;;16.77;34.02;98790.56;6311370;27;96804;-64
2023/01/11 13:29:51;;;;;;;;;11.00;10.00;;;;;16.63;34.24;98787.50;6317716;27;96889;-64
2023/01/11 13:33:00;;;;;;;;;11.00;9.00;;;;;16.22;34.69;98788.31;6319302;27;96232;-65
2023/01/11 13:36:12;;;;;;;;;13.00;11.00;;;;;15.76;35.76;98796.06;6320414;27;96833;-65
2023/01/11 13:39:34;;;;;;;;;12.40;11.80;;;;;14.97;37.50;98803.81;6313496;27;95908;-65
2023/01/11 13:42:43;;;;;;;;;14.00;12.00;;;;;14.40;38.35;98784.31;6315231;27;96591;-64
2023/01/11 13:45:51;;;;;;;;;12.80;12.80;;;;;14.41;38.48;98798.69;6301042;27;96694;-65
2023/01/11 13:49:04;;;;;;;;;12.00;11.00;;;;;14.20;39.20;98792.94;6319675;27;96360;-64
2023/01/11 13:52:13;;;;;;;;;13.60;12.00;;;;;14.27;39.06;98787.31;6316764;27;96886;-64
2023/01/11 13:55:23;;;;;;;;;10.60;10.40;;;;;14.24;39.21;98788.66;6317906;27;97076;-66
2023/01/11 13:58:37;;;;;;;;;11.25;10.25;;;;;14.16;39.34;98791.78;6323704;27;96341;-64
2023/01/11 14:01:47;;;;;;;;;10.60;10.60;;;;;14.04;39.70;98790.22;6322418;27;96212;-64
2023/01/11 14:04:58;;;;;;;;;13.00;11.00;;;;;13.86;40.09;98785.84;6320936;27;96866;-64
2023/01/11 14:08:16;;;;;;;;;12.33;11.67;;;;;13.76;40.46;98777.56;6322998;27;96374;-65
2023/01/11 14:11:25;;;;;;;;;12.40;11.00;;;;;13.72;40.35;98777.22;6322791;27;96535;-64
2023/01/11 14:14:51;;;;;;;;;12.60;12.00;;;;;13.52;41.24;98774.16;6323861;27;96395;-65
2023/01/11 14:18:22;;;;;;;;;12.00;10.60;;;;;13.27;41.60;98770.97;6321978;27;97068;-66
2023/01/11 14:21:31;;;;;;;;;12.50;11.00;;;;;13.06;42.29;98768.88;6317900;27;96254;-66
2023/01/11 14:24:41;;;;;;;;;12.75;12.75;;;;;12.87;42.56;98769.06;6317400;27;96198;-64
2023/01/11 14:28:07;;;;;;;;;15.50;14.00;;;;;12.42;43.68;98770.78;6321386;27;96224;-64
2023/01/11 14:31:27;;;;;;;;;14.25;12.25;;;;;12.22;44.39;98775.75;6320405;27;96844;-65
2023/01/11 14:35:01;;;;;;;;;12.20;11.80;;;;;12.17;44.86;98772.94;6311280;27;96480;-64
2023/01/11 14:38:40;;;;;;;;;15.00;14.75;;;;;12.14;44.46;98766.09;6318720;27;96283;-65
2023/01/11 14:42:12;;;;;;;;;15.00;14.20;;;;;12.12;44.53;98763.63;6318150;27;98878;-65
2023/01/11 14:45:54;;;;;;;;;17.00;15.00;;;;;12.08;44.83;98762.44;6315877;27;96291;-66
2023/01/11 14:49:09;;;;;;;;;16.60;14.60;;;;;12.02;45.05;98771.47;6316005;27;97085;-66
2023/01/11 14:52:20;;;;;;;;;16.25;14.25;;;;;11.97;45.49;98757.84;6319730;27;96299;-65
2023/01/11 14:55:45;;;;;;;;;18.60;17.20;;;;;11.88;45.68;98755.72;6322312;27;96214;-64
2023/01/11 14:59:02;;;;;;;;;18.60;16.00;;;;;11.76;46.19;98750.31;6320838;27;96932;-64